Time;durP1;ratioP1;P1;durP2;ratioP2;P2;SDS_P1;SDS_P2;PMS_P1;PMS_P2;Temp;Humidity;BMP_temperature;BMP_pressure;BME280_temperature;BME280_humidity;BME280_pressure;Samples;Min_cycle;Max_cycle;Signal;HPM_P1;HPM_P2
2022/10/01 00:02:06;;;;;;;10.20;7.80;;;16.80;96.70;;;;;;5082898;28;20422;-77
2022/10/01 00:04:36;;;;;;;11.65;7.45;;;16.80;96.70;;;;;;5083326;28;20051;-77
2022/10/01 00:07:08;;;;;;;10.98;8.27;;;16.80;96.70;;;;;;5083309;28;20052;-75
2022/10/01 00:10:13;;;;;;;10.75;7.72;;;16.80;96.70;;;;;;5084365;28;20074;-77
2022/10/01 00:13:01;;;;;;;11.32;7.32;;;16.80;96.70;;;;;;5085126;28;20059;-77
2022/10/01 00:15:29;;;;;;;10.57;7.32;;;16.80;96.70;;;;;;5082201;28;20178;-78
2022/10/01 00:17:57;;;;;;;11.13;7.75;;;16.80;96.70;;;;;;5066898;28;20055;-77
2022/10/01 00:20:26;;;;;;;10.05;7.97;;;16.80;96.70;;;;;;5065204;28;20421;-77
2022/10/01 00:22:54;;;;;;;13.07;8.30;;;16.80;96.70;;;;;;5083953;28;20048;-77
2022/10/01 00:25:24;;;;;;;12.02;8.50;;;16.70;96.70;;;;;;5084961;28;20052;-77
2022/10/01 00:27:52;;;;;;;13.80;8.93;;;16.70;96.70;;;;;;5064346;28;20033;-77
2022/10/01 00:30:22;;;;;;;12.15;8.43;;;16.70;96.70;;;;;;5084574;28;20047;-76
2022/10/01 00:32:53;;;;;;;13.90;9.10;;;16.70;96.70;;;;;;5085537;28;20063;-76
2022/10/01 00:35:21;;;;;;;13.52;9.07;;;16.80;96.70;;;;;;5083586;28;20593;-76
2022/10/01 00:37:51;;;;;;;13.07;8.70;;;16.80;96.70;;;;;;5084997;28;20056;-74
2022/10/01 00:40:20;;;;;;;13.30;9.57;;;16.80;96.70;;;;;;5066513;28;20054;-74
2022/10/01 00:42:49;;;;;;;11.07;8.35;;;16.70;96.70;;;;;;5082161;28;20050;-74
2022/10/01 00:45:17;;;;;;;12.95;8.48;;;16.70;96.70;;;;;;5082434;28;20051;-75
2022/10/01 00:47:52;;;;;;;11.25;8.75;;;16.60;96.70;;;;;;5083199;28;20127;-74
2022/10/01 00:50:25;;;;;;;12.18;7.93;;;16.60;96.70;;;;;;5080920;28;20707;-75
2022/10/01 00:52:58;;;;;;;11.48;7.68;;;16.60;96.70;;;;;;5080085;28;20044;-75
2022/10/01 00:55:30;;;;;;;12.13;7.43;;;16.60;96.70;;;;;;5083011;28;20525;-75
2022/10/01 00:57:58;;;;;;;9.38;6.63;;;16.60;96.70;;;;;;5080316;28;20052;-75
2022/10/01 01:00:27;;;;;;;9.43;6.68;;;16.60;96.70;;;;;;5082946;28;20044;-75
2022/10/01 01:02:57;;;;;;;10.48;6.93;;;16.50;96.70;;;;;;5081408;28;20037;-75
2022/10/01 01:05:25;;;;;;;8.70;5.47;;;16.50;96.70;;;;;;5083662;28;20048;-75
2022/10/01 01:07:53;;;;;;;8.48;5.93;;;16.50;96.70;;;;;;5083917;28;20043;-75
2022/10/01 01:10:28;;;;;;;8.90;5.20;;;16.40;96.70;;;;;;5082859;28;20134;-75
2022/10/01 01:13:11;;;;;;;10.20;5.13;;;16.30;96.70;;;;;;5081960;28;20040;-75
2022/10/01 01:15:45;;;;;;;8.23;5.47;;;16.20;96.70;;;;;;5110943;27;20105;-73
2022/10/01 01:18:21;;;;;;;14.75;5.70;;;16.20;96.70;;;;;;5082088;28;20050;-73
2022/10/01 01:21:12;;;;;;;18.85;5.80;;;16.20;96.70;;;;;;5078808;28;20074;-73
2022/10/01 01:24:18;;;;;;;19.52;5.72;;;16.10;96.70;;;;;;5095626;28;20333;-73
2022/10/01 01:26:58;;;;;;;19.65;6.10;;;16.10;96.70;;;;;;5083443;28;20044;-72
2022/10/01 01:29:35;;;;;;;13.65;6.22;;;16.10;96.70;;;;;;5071663;28;20044;-73
2022/10/01 01:32:11;;;;;;;27.13;6.40;;;16.10;96.70;;;;;;5082117;28;20044;-73
2022/10/01 01:34:46;;;;;;;14.23;5.93;;;16.20;96.70;;;;;;5081332;28;20130;-72
2022/10/01 01:37:17;;;;;;;12.88;5.70;;;16.10;96.70;;;;;;5083261;28;20052;-73
2022/10/01 01:39:51;;;;;;;17.70;6.22;;;16.00;96.70;;;;;;5077343;28;20055;-73
2022/10/01 01:42:24;;;;;;;21.80;6.38;;;16.00;96.70;;;;;;5083246;28;20051;-73
2022/10/01 01:44:57;;;;;;;12.05;5.13;;;16.00;96.70;;;;;;5082300;28;20052;-73
2022/10/01 01:47:33;;;;;;;8.38;5.15;;;16.00;96.70;;;;;;5080952;28;20043;-73
2022/10/01 01:50:03;;;;;;;10.15;5.32;;;16.00;96.70;;;;;;5083103;28;20044;-74
2022/10/01 01:52:32;;;;;;;11.70;5.22;;;16.00;96.70;;;;;;5078510;28;20530;-73
2022/10/01 01:55:07;;;;;;;9.70;4.93;;;16.00;96.70;;;;;;5082145;28;20044;-73
2022/10/01 01:57:39;;;;;;;8.50;4.53;;;15.90;96.70;;;;;;5083215;28;20047;-74
2022/10/01 02:00:11;;;;;;;7.25;4.30;;;15.90;96.70;;;;;;5082726;28;20040;-74
2022/10/01 02:02:43;;;;;;;4.88;4.18;;;15.90;96.70;;;;;;5082596;28;20051;-73
2022/10/01 02:05:14;;;;;;;5.25;4.18;;;15.90;96.70;;;;;;5087071;28;20485;-73
2022/10/01 02:08:15;;;;;;;5.85;4.35;;;15.90;96.70;;;;;;5086984;28;20039;-74
2022/10/01 02:11:02;;;;;;;5.75;4.47;;;15.90;96.70;;;;;;5088001;28;20505;-73
2022/10/01 02:13:39;;;;;;;5.00;4.18;;;15.90;96.70;;;;;;5087463;28;20047;-73
2022/10/01 02:16:17;;;;;;;6.53;4.03;;;15.90;96.70;;;;;;5087126;28;20048;-73
2022/10/01 02:18:51;;;;;;;5.22;3.60;;;15.90;96.70;;;;;;5086248;28;20062;-73
2022/10/01 02:21:26;;;;;;;5.22;4.28;;;15.90;96.70;;;;;;5083931;28;20045;-73
2022/10/01 02:24:00;;;;;;;4.40;4.00;;;15.90;96.70;;;;;;5087548;28;20097;-73
2022/10/01 02:26:30;;;;;;;3.90;3.45;;;16.00;96.70;;;;;;5082982;28;20047;-72
2022/10/01 02:29:02;;;;;;;4.82;4.00;;;15.90;96.70;;;;;;5085245;28;20130;-73
2022/10/01 02:31:35;;;;;;;5.90;4.03;;;16.00;96.70;;;;;;5082960;28;20538;-74
2022/10/01 02:34:07;;;;;;;5.22;3.70;;;16.00;96.70;;;;;;5086506;28;20050;-73
2022/10/01 02:36:41;;;;;;;12.85;4.53;;;15.90;96.70;;;;;;5082582;28;20089;-73
2022/10/01 02:39:10;;;;;;;5.70;4.95;;;15.90;96.70;;;;;;5084823;28;20072;-73
2022/10/01 02:41:40;;;;;;;6.03;4.55;;;15.80;96.70;;;;;;5083451;28;20651;-73
2022/10/01 02:44:13;;;;;;;7.07;4.97;;;15.80;96.70;;;;;;5084303;28;20089;-73
2022/10/01 02:46:49;;;;;;;9.13;5.93;;;15.80;96.70;;;;;;5097973;28;20056;-72
2022/10/01 02:49:17;;;;;;;11.45;6.40;;;15.80;96.70;;;;;;5085317;28;20063;-74
2022/10/01 02:51:53;;;;;;;9.90;5.55;;;15.90;96.70;;;;;;5082446;28;20048;-73
2022/10/01 02:54:25;;;;;;;;;;;15.80;96.70;;;;;;5080999;28;20148;-73
2022/10/01 02:59:40;;;;;;;11.80;6.80;;;15.80;96.70;;;;;;5086262;28;20051;-73
2022/10/01 03:02:10;;;;;;;7.38;5.65;;;15.80;96.70;;;;;;5080063;28;20036;-73
2022/10/01 03:04:38;;;;;;;7.43;5.65;;;15.80;96.70;;;;;;5086310;28;20533;-73
2022/10/01 03:07:07;;;;;;;7.28;5.15;;;15.80;96.70;;;;;;5069239;28;20040;-73
2022/10/01 03:09:38;;;;;;;13.38;7.03;;;15.80;96.70;;;;;;5086858;28;20047;-73
2022/10/01 03:12:06;;;;;;;9.02;6.47;;;15.80;96.70;;;;;;5067726;28;20101;-73
2022/10/01 03:14:34;;;;;;;9.73;5.72;;;15.80;96.70;;;;;;5079558;28;20048;-73
2022/10/01 03:17:02;;;;;;;10.10;6.43;;;15.90;96.70;;;;;;5085639;28;20051;-74
2022/10/01 03:19:32;;;;;;;10.30;6.75;;;16.00;96.70;;;;;;5081011;28;20042;-73
2022/10/01 03:22:00;;;;;;;11.13;6.55;;;16.00;96.70;;;;;;5085842;28;20409;-73
2022/10/01 03:24:28;;;;;;;11.23;7.18;;;16.00;96.70;;;;;;5101906;28;20383;-74
2022/10/01 03:26:57;;;;;;;13.40;7.82;;;16.00;96.70;;;;;;5086097;28;20048;-73
2022/10/01 03:29:25;;;;;;;13.23;6.45;;;16.00;96.70;;;;;;5083813;28;20490;-73
2022/10/01 03:31:54;;;;;;;11.80;7.47;;;16.00;96.70;;;;;;5085328;28;20729;-73
2022/10/01 03:34:22;;;;;;;11.88;7.18;;;16.00;96.70;;;;;;5082839;28;21036;-74
2022/10/01 03:36:52;;;;;;;13.57;7.68;;;16.10;96.70;;;;;;5084031;28;20047;-73
2022/10/01 03:39:20;;;;;;;11.98;7.65;;;16.00;96.70;;;;;;5067782;28;20037;-73
2022/10/01 03:41:48;;;;;;;11.18;8.02;;;16.10;96.70;;;;;;5084711;28;20044;-73
2022/10/01 03:44:17;;;;;;;11.63;7.50;;;16.10;96.70;;;;;;5085810;28;20558;-73
2022/10/01 03:46:45;;;;;;;14.13;7.50;;;16.10;96.70;;;;;;5083896;28;20680;-74
2022/10/01 03:49:13;;;;;;;12.38;6.78;;;16.20;96.70;;;;;;5067963;28;20043;-73
2022/10/01 03:51:41;;;;;;;8.98;6.25;;;16.20;96.70;;;;;;5085120;28;20048;-74
2022/10/01 03:54:11;;;;;;;9.05;5.47;;;16.10;96.70;;;;;;5085772;28;20040;-74
2022/10/01 03:56:41;;;;;;;9.57;6.28;;;16.10;96.70;;;;;;5083129;28;20048;-73
2022/10/01 03:59:10;;;;;;;8.75;6.03;;;16.10;96.70;;;;;;5085470;28;20097;-73
2022/10/01 04:01:39;;;;;;;10.00;6.63;;;16.10;96.70;;;;;;5084287;28;20048;-75
2022/10/01 04:04:07;;;;;;;13.60;7.30;;;16.10;96.70;;;;;;5085915;28;20044;-74
2022/10/01 04:06:35;;;;;;;9.68;6.53;;;16.10;96.70;;;;;;5084744;28;20097;-74
2022/10/01 04:09:04;;;;;;;10.23;6.10;;;16.10;96.70;;;;;;5084179;28;20504;-74
2022/10/01 04:11:33;;;;;;;13.00;6.13;;;16.00;96.70;;;;;;5084260;28;20040;-74
2022/10/01 04:14:02;;;;;;;11.15;6.72;;;16.10;96.70;;;;;;5078714;28;20052;-73
2022/10/01 04:16:33;;;;;;;18.17;6.95;;;16.10;96.70;;;;;;5078695;28;20123;-74
2022/10/01 04:19:02;;;;;;;17.30;7.70;;;16.00;96.70;;;;;;5081852;28;20054;-74
2022/10/01 04:21:30;;;;;;;12.90;7.28;;;16.00;96.70;;;;;;5084557;28;20474;-73
2022/10/01 04:23:59;;;;;;;12.50;7.20;;;16.00;96.70;;;;;;5084914;28;20480;-74
2022/10/01 04:26:27;;;;;;;16.40;8.40;;;16.00;96.70;;;;;;5083366;28;20054;-73
2022/10/01 04:28:56;;;;;;;9.07;6.93;;;16.00;96.70;;;;;;5067385;28;20044;-74
2022/10/01 04:31:24;;;;;;;14.20;7.82;;;16.00;96.70;;;;;;5081735;28;20106;-74
2022/10/01 04:33:54;;;;;;;9.70;6.85;;;15.90;96.70;;;;;;5077877;28;20566;-74
2022/10/01 04:36:23;;;;;;;13.20;7.15;;;15.90;96.70;;;;;;5084232;28;20067;-74
2022/10/01 04:38:52;;;;;;;16.15;7.85;;;15.90;96.70;;;;;;5083037;28;20032;-74
2022/10/01 04:41:26;;;;;;;14.27;6.97;;;15.90;96.70;;;;;;5112571;27;20044;-74
2022/10/01 04:43:58;;;;;;;15.57;6.53;;;15.80;96.70;;;;;;5083153;28;20067;-74
2022/10/01 04:46:26;;;;;;;13.73;5.90;;;15.80;96.70;;;;;;5091600;28;20062;-74
2022/10/01 04:48:55;;;;;;;21.63;6.88;;;15.80;96.70;;;;;;5083822;28;20036;-74
2022/10/01 04:51:23;;;;;;;26.70;6.55;;;15.80;96.70;;;;;;5082951;28;20147;-74
2022/10/01 04:53:51;;;;;;;17.80;6.90;;;15.90;96.70;;;;;;5082920;28;20426;-75
2022/10/01 04:56:19;;;;;;;25.98;7.32;;;15.80;96.70;;;;;;5082498;28;20052;-74
2022/10/01 04:58:48;;;;;;;9.38;6.18;;;15.90;96.70;;;;;;5084208;28;20036;-74
2022/10/01 05:01:17;;;;;;;11.07;6.63;;;16.00;96.70;;;;;;5083081;28;20051;-74
2022/10/01 05:03:46;;;;;;;22.20;7.78;;;16.10;96.70;;;;;;5083479;28;20043;-74
2022/10/01 05:06:14;;;;;;;20.58;9.10;;;16.10;96.70;;;;;;5077424;28;20048;-74
2022/10/01 05:08:42;;;;;;;18.15;8.27;;;16.00;96.70;;;;;;5078429;28;20539;-74
2022/10/01 05:11:11;;;;;;;21.45;7.88;;;15.90;96.70;;;;;;5085463;28;20047;-74
2022/10/01 05:13:39;;;;;;;20.80;8.35;;;16.10;96.70;;;;;;5080902;28;20067;-73
2022/10/01 05:16:07;;;;;;;22.73;8.77;;;16.10;96.70;;;;;;5072269;28;20064;-73
2022/10/01 05:18:39;;;;;;;16.10;8.85;;;16.00;96.70;;;;;;5063655;28;20105;-74
2022/10/01 05:21:10;;;;;;;18.85;8.60;;;16.00;96.70;;;;;;5081761;28;20048;-74
2022/10/01 05:23:39;;;;;;;29.00;9.50;;;16.00;96.70;;;;;;5082949;28;20097;-74
2022/10/01 05:26:07;;;;;;;17.02;8.73;;;16.00;96.70;;;;;;5083000;28;20548;-73
2022/10/01 05:28:35;;;;;;;14.80;8.20;;;16.00;96.70;;;;;;5081215;28;20122;-74
2022/10/01 05:31:04;;;;;;;13.25;7.32;;;16.00;96.70;;;;;;5083627;28;20048;-73
2022/10/01 05:33:33;;;;;;;11.07;7.30;;;16.00;96.70;;;;;;5082066;28;20127;-74
2022/10/01 05:36:05;;;;;;;12.65;7.25;;;16.00;96.70;;;;;;5083153;28;20043;-74
2022/10/01 05:38:35;;;;;;;15.13;6.93;;;16.10;96.70;;;;;;5082929;28;20040;-77
2022/10/01 05:41:04;;;;;;;15.20;7.63;;;16.10;96.70;;;;;;5078940;28;20051;-76
2022/10/01 05:43:32;;;;;;;10.05;5.97;;;16.10;96.70;;;;;;5077882;28;20679;-76
2022/10/01 05:46:01;;;;;;;16.92;5.10;;;16.00;96.70;;;;;;5077394;28;20054;-75
2022/10/01 05:48:33;;;;;;;14.43;7.07;;;16.00;96.70;;;;;;5081265;28;20746;-76
2022/10/01 05:51:05;;;;;;;20.63;8.20;;;15.90;96.70;;;;;;5083225;28;20117;-76
2022/10/01 05:53:36;;;;;;;16.20;8.95;;;15.80;96.70;;;;;;5079003;28;20137;-76
2022/10/01 05:56:05;;;;;;;18.70;8.65;;;15.80;96.70;;;;;;5065277;28;20052;-76
2022/10/01 05:58:33;;;;;;;18.52;8.35;;;15.80;96.70;;;;;;5080140;28;21044;-76
2022/10/01 06:01:03;;;;;;;25.75;9.23;;;15.80;96.70;;;;;;5080400;28;20169;-75
2022/10/01 06:03:32;;;;;;;14.73;7.85;;;15.80;96.70;;;;;;5082124;28;20044;-76
2022/10/01 06:06:00;;;;;;;20.02;8.27;;;15.80;96.70;;;;;;5082098;28;20039;-76
2022/10/01 06:08:30;;;;;;;18.55;8.73;;;15.80;96.70;;;;;;5080738;28;20075;-75
2022/10/01 06:10:59;;;;;;;16.73;8.80;;;15.80;96.70;;;;;;5078755;28;20044;-75
2022/10/01 06:13:28;;;;;;;13.77;7.18;;;15.80;96.70;;;;;;5082065;28;20401;-75
2022/10/01 06:15:56;;;;;;;10.80;6.32;;;15.80;96.70;;;;;;5083272;28;20060;-76
2022/10/01 06:18:26;;;;;;;9.07;6.05;;;15.90;96.70;;;;;;5084040;28;20580;-75
2022/10/01 06:20:56;;;;;;;10.88;4.60;;;16.10;96.70;;;;;;5080799;28;20085;-75
2022/10/01 06:23:25;;;;;;;13.13;5.47;;;16.10;96.70;;;;;;5077370;28;20044;-75
2022/10/01 06:25:54;;;;;;;11.05;5.85;;;16.20;96.70;;;;;;5065897;28;20052;-75
2022/10/01 06:28:22;;;;;;;13.75;6.13;;;16.20;96.70;;;;;;5082719;28;20054;-75
2022/10/01 06:30:51;;;;;;;9.23;6.00;;;16.00;96.70;;;;;;5081747;28;20089;-75
2022/10/01 06:33:19;;;;;;;10.85;6.70;;;16.00;96.70;;;;;;5095373;28;20568;-75
2022/10/01 06:35:49;;;;;;;14.35;6.85;;;16.00;96.70;;;;;;5074570;28;20448;-75
2022/10/01 06:38:19;;;;;;;16.73;7.22;;;16.00;96.70;;;;;;5083409;28;20075;-76
2022/10/01 06:40:53;;;;;;;12.02;6.75;;;15.90;96.70;;;;;;5078155;28;20675;-75
2022/10/01 06:43:21;;;;;;;17.48;6.53;;;16.00;96.70;;;;;;5069546;28;20055;-76
2022/10/01 06:45:50;;;;;;;28.02;7.35;;;15.80;96.70;;;;;;5072853;28;20071;-76
2022/10/01 06:48:19;;;;;;;19.92;6.90;;;15.70;96.70;;;;;;5085528;28;20044;-76
2022/10/01 06:50:49;;;;;;;16.17;6.18;;;15.80;96.70;;;;;;5084585;28;20491;-76
2022/10/01 06:53:17;;;;;;;20.90;6.18;;;15.80;96.70;;;;;;5077217;28;20048;-77
2022/10/01 06:55:46;;;;;;;18.50;7.00;;;15.80;96.70;;;;;;5083075;28;20606;-78
2022/10/01 06:58:17;;;;;;;14.98;5.85;;;15.80;96.70;;;;;;5067806;28;20067;-75
2022/10/01 07:00:46;;;;;;;17.48;6.50;;;15.90;96.70;;;;;;5099096;28;20075;-75
2022/10/01 07:03:17;;;;;;;8.57;5.70;;;15.90;96.70;;;;;;5085652;28;20044;-76
2022/10/01 07:05:46;;;;;;;9.18;5.35;;;15.90;96.70;;;;;;5084348;28;20052;-76
2022/10/01 07:08:14;;;;;;;9.07;6.22;;;16.10;96.70;;;;;;5067222;28;20051;-76
2022/10/01 07:10:43;;;;;;;11.05;6.55;;;16.10;96.70;;;;;;5085511;28;20140;-76
2022/10/01 07:13:13;;;;;;;13.23;6.90;;;16.20;96.70;;;;;;5083675;28;20044;-76
2022/10/01 07:15:42;;;;;;;15.77;6.28;;;16.30;96.70;;;;;;5085612;28;20056;-76
2022/10/01 07:18:11;;;;;;;13.27;5.80;;;16.20;96.70;;;;;;5084862;28;20074;-76
2022/10/01 07:20:40;;;;;;;16.83;6.22;;;16.30;96.70;;;;;;5086967;28;20048;-76
2022/10/01 07:23:10;;;;;;;7.90;6.20;;;16.30;96.70;;;;;;5084856;28;20060;-77
2022/10/01 07:25:39;;;;;;;7.45;6.32;;;16.50;96.70;;;;;;5068613;28;20044;-76
2022/10/01 07:28:14;;;;;;;7.43;6.63;;;16.50;96.70;;;;;;5068823;28;20505;-76
2022/10/01 07:30:55;;;;;;;8.55;6.70;;;16.50;96.70;;;;;;5086319;28;20556;-76
2022/10/01 07:33:23;;;;;;;9.73;6.43;;;16.50;96.70;;;;;;5085703;28;20113;-76
2022/10/01 07:35:51;;;;;;;7.57;6.28;;;16.60;96.70;;;;;;5084769;28;20517;-76
2022/10/01 07:38:19;;;;;;;8.10;6.57;;;16.60;96.70;;;;;;5060829;28;20059;-77
2022/10/01 07:40:51;;;;;;;13.55;8.13;;;16.60;96.70;;;;;;5085590;28;20043;-75
2022/10/01 07:43:32;;;;;;;8.80;6.70;;;16.50;96.70;;;;;;5080509;28;20051;-76
2022/10/01 07:46:03;;;;;;;10.23;6.70;;;16.40;96.70;;;;;;5089141;28;20052;-76
2022/10/01 07:48:32;;;;;;;8.43;5.82;;;16.50;96.70;;;;;;5085307;28;20117;-75
2022/10/01 07:51:00;;;;;;;8.02;6.55;;;16.60;96.70;;;;;;5081648;28;20067;-76
2022/10/01 07:53:28;;;;;;;7.65;6.25;;;16.60;96.70;;;;;;5084999;28;20401;-76
2022/10/01 07:56:00;;;;;;;12.43;6.15;;;16.70;96.70;;;;;;5086556;28;20496;-76
2022/10/01 07:58:28;;;;;;;11.75;6.53;;;16.60;96.70;;;;;;5083582;28;20048;-75
2022/10/01 08:00:58;;;;;;;8.68;6.45;;;16.70;96.70;;;;;;5078022;28;20067;-75
2022/10/01 08:03:28;;;;;;;9.55;6.03;;;16.80;96.70;;;;;;5084681;28;20413;-76
2022/10/01 08:05:56;;;;;;;6.90;6.20;;;16.80;96.70;;;;;;5065908;28;20044;-75
2022/10/01 08:08:24;;;;;;;6.85;6.10;;;16.80;96.70;;;;;;5081355;28;20130;-75
2022/10/01 08:10:52;;;;;;;7.22;5.93;;;16.80;96.70;;;;;;5083422;28;20040;-74
2022/10/01 08:13:23;;;;;;;6.25;5.65;;;16.80;96.70;;;;;;5085273;28;20070;-76
2022/10/01 08:15:54;;;;;;;7.25;5.88;;;16.90;96.70;;;;;;5083003;28;20144;-76
2022/10/01 08:18:23;;;;;;;8.23;6.30;;;16.90;96.70;;;;;;5085450;28;20040;-76
2022/10/01 08:20:52;;;;;;;8.02;5.55;;;17.00;96.70;;;;;;5084999;28;20036;-75
2022/10/01 08:23:21;;;;;;;8.57;6.30;;;17.10;96.70;;;;;;5083562;28;20956;-74
2022/10/01 08:25:50;;;;;;;8.32;6.35;;;17.10;96.70;;;;;;5084806;28;20048;-76
2022/10/01 08:28:18;;;;;;;8.88;6.78;;;17.10;96.70;;;;;;5077938;28;20055;-76
2022/10/01 08:30:46;;;;;;;6.72;6.03;;;17.10;96.70;;;;;;5078702;28;20036;-74
2022/10/01 08:33:14;;;;;;;7.63;6.03;;;17.10;96.70;;;;;;5085031;28;20075;-74
2022/10/01 08:35:43;;;;;;;8.00;6.00;;;17.10;96.70;;;;;;5082991;28;20043;-74
2022/10/01 08:38:18;;;;;;;7.32;5.50;;;17.10;96.70;;;;;;5098787;27;20117;-74
2022/10/01 08:40:49;;;;;;;6.95;5.90;;;17.20;96.70;;;;;;5066707;28;20048;-74
2022/10/01 08:43:29;;;;;;;6.68;6.03;;;17.30;96.70;;;;;;5083910;28;20139;-74
2022/10/01 08:46:00;;;;;;;8.07;5.88;;;17.40;96.70;;;;;;5082960;28;20101;-74
2022/10/01 08:48:57;;;;;;;7.88;6.32;;;17.60;96.70;;;;;;5085033;28;20433;-76
2022/10/01 08:51:31;;;;;;;7.28;6.47;;;17.60;96.70;;;;;;5069330;28;20572;-76
2022/10/01 08:54:09;;;;;;;8.35;6.30;;;17.70;96.70;;;;;;5097687;28;20075;-76
2022/10/01 08:56:43;;;;;;;6.97;6.28;;;17.50;96.70;;;;;;5084977;28;20055;-76
2022/10/01 08:59:21;;;;;;;10.15;6.85;;;17.70;96.70;;;;;;5081944;28;20039;-76
2022/10/01 09:01:54;;;;;;;11.60;6.95;;;17.80;96.70;;;;;;5083291;28;20048;-76
2022/10/01 09:04:23;;;;;;;8.15;6.90;;;17.80;96.70;;;;;;5080583;28;20036;-77
2022/10/01 09:07:01;;;;;;;6.75;6.05;;;17.80;96.70;;;;;;5079931;28;20081;-75
2022/10/01 09:09:43;;;;;;;7.95;6.28;;;17.90;96.70;;;;;;5078626;28;20102;-75
2022/10/01 09:12:23;;;;;;;8.38;7.47;;;18.20;96.70;;;;;;5083462;28;20487;-75
2022/10/01 09:15:16;;;;;;;8.13;7.18;;;18.30;96.70;;;;;;5079147;28;20052;-76
2022/10/01 09:18:05;;;;;;;8.43;6.80;;;18.30;96.70;;;;;;5082181;28;20139;-75
2022/10/01 09:20:36;;;;;;;8.57;6.65;;;18.30;96.70;;;;;;5081518;28;20056;-75
2022/10/01 09:23:32;;;;;;;8.85;7.28;;;18.40;96.70;;;;;;5082979;28;20109;-75
2022/10/01 09:26:04;;;;;;;8.20;6.97;;;18.30;96.70;;;;;;5082994;28;20047;-75
2022/10/01 09:28:34;;;;;;;8.95;7.50;;;18.10;96.70;;;;;;5075478;28;20051;-75
2022/10/01 09:31:11;;;;;;;7.55;6.75;;;18.10;96.70;;;;;;5084665;28;20086;-75
2022/10/01 09:33:54;;;;;;;7.75;6.95;;;18.10;96.70;;;;;;5082564;28;20040;-75
2022/10/01 09:36:32;;;;;;;8.00;6.95;;;18.20;96.70;;;;;;5082779;28;20513;-76
2022/10/01 09:39:10;;;;;;;9.55;7.03;;;18.30;96.70;;;;;;5080646;28;20059;-75
2022/10/01 09:41:40;;;;;;;7.28;6.25;;;18.40;96.70;;;;;;5098071;28;20085;-75
2022/10/01 09:44:16;;;;;;;7.45;6.72;;;18.40;96.70;;;;;;5096663;28;20032;-75
2022/10/01 09:46:46;;;;;;;7.57;6.13;;;18.50;96.70;;;;;;5064804;28;20052;-76
2022/10/01 09:49:24;;;;;;;6.68;5.95;;;18.50;96.70;;;;;;5081095;28;20074;-76
2022/10/01 09:51:56;;;;;;;9.13;7.22;;;18.60;96.70;;;;;;5080396;28;20040;-76
2022/10/01 09:54:31;;;;;;;9.57;7.03;;;18.60;96.70;;;;;;5078147;28;20056;-74
2022/10/01 09:57:06;;;;;;;9.10;7.20;;;18.70;96.70;;;;;;5081868;28;20043;-76
2022/10/01 09:59:40;;;;;;;7.90;7.10;;;18.70;96.70;;;;;;5082768;28;20040;-77
2022/10/01 10:02:16;;;;;;;7.20;6.43;;;18.80;96.70;;;;;;5080995;28;20115;-75
2022/10/01 10:04:44;;;;;;;9.25;6.68;;;19.00;96.70;;;;;;5078785;28;20044;-76
2022/10/01 10:07:17;;;;;;;7.53;6.72;;;19.00;96.70;;;;;;5081255;28;20055;-74
2022/10/01 10:09:46;;;;;;;8.90;6.50;;;19.00;96.70;;;;;;5079582;28;20158;-73
2022/10/01 10:12:27;;;;;;;8.98;7.05;;;19.10;96.70;;;;;;5081980;28;20075;-74
2022/10/01 10:14:57;;;;;;;8.20;6.60;;;19.20;96.70;;;;;;5072162;28;20113;-74
2022/10/01 10:17:26;;;;;;;7.07;5.55;;;19.40;96.70;;;;;;5065433;28;20551;-74
2022/10/01 10:19:54;;;;;;;6.45;5.63;;;19.60;96.70;;;;;;5094720;28;20044;-74
2022/10/01 10:22:25;;;;;;;9.63;6.22;;;19.80;96.70;;;;;;5080845;28;20076;-80
2022/10/01 10:24:56;;;;;;;7.25;4.53;;;19.80;96.70;;;;;;5085393;28;20428;-74
2022/10/01 10:27:28;;;;;;;7.50;4.95;;;19.90;96.70;;;;;;5087047;28;20040;-75
2022/10/01 10:30:05;;;;;;;6.25;4.93;;;20.00;96.70;;;;;;5079125;28;20059;-74
2022/10/01 10:32:33;;;;;;;6.70;4.60;;;20.10;96.70;;;;;;5084340;28;20093;-74
2022/10/01 10:35:04;;;;;;;6.47;3.80;;;20.10;96.70;;;;;;5101963;28;20955;-75
2022/10/01 10:37:35;;;;;;;7.43;4.13;;;20.20;96.70;;;;;;5087190;28;20064;-74
2022/10/01 10:40:09;;;;;;;6.45;3.83;;;20.30;96.70;;;;;;5085168;28;20048;-75
2022/10/01 10:42:46;;;;;;;4.45;2.60;;;20.50;96.70;;;;;;5084964;28;20044;-74
2022/10/01 10:45:18;;;;;;;6.88;2.97;;;20.50;96.70;;;;;;5084541;28;20051;-74
2022/10/01 10:47:50;;;;;;;6.32;2.88;;;20.60;96.70;;;;;;5081133;28;20475;-74
2022/10/01 10:50:35;;;;;;;5.40;2.88;;;20.70;96.70;;;;;;5086010;28;20040;-75
2022/10/01 10:53:21;;;;;;;4.47;2.90;;;20.70;96.70;;;;;;5083255;28;20101;-74
2022/10/01 10:55:54;;;;;;;4.85;2.63;;;20.90;96.70;;;;;;5081711;28;20067;-74
2022/10/01 10:58:26;;;;;;;5.85;2.28;;;21.00;96.70;;;;;;5086406;28;20048;-74
2022/10/01 11:00:57;;;;;;;8.65;2.22;;;21.00;96.70;;;;;;5086339;28;20494;-74
2022/10/01 11:03:27;;;;;;;7.95;1.92;;;21.20;96.70;;;;;;5085451;28;20068;-75
2022/10/01 11:06:01;;;;;;;4.00;1.70;;;21.40;96.70;;;;;;5068099;28;20048;-75
2022/10/01 11:08:30;;;;;;;5.00;1.60;;;21.40;96.70;;;;;;5082071;28;20135;-74
2022/10/01 11:11:13;;;;;;;6.00;1.98;;;21.40;96.70;;;;;;5081081;28;20036;-75
2022/10/01 11:14:00;;;;;;;5.05;1.65;;;21.50;96.70;;;;;;5079583;28;20093;-74
2022/10/01 11:16:39;;;;;;;3.42;1.30;;;21.60;96.70;;;;;;5080369;28;20324;-75
2022/10/01 11:19:28;;;;;;;3.47;0.90;;;21.70;96.70;;;;;;5077625;28;20044;-75
2022/10/01 11:22:13;;;;;;;4.35;1.25;;;21.80;96.70;;;;;;5081995;28;20126;-75
2022/10/01 11:25:02;;;;;;;6.95;1.92;;;21.90;96.70;;;;;;5085184;28;20122;-74
2022/10/01 11:27:37;;;;;;;3.22;0.70;;;21.60;96.70;;;;;;5101244;28;20052;-75
2022/10/01 11:30:14;;;;;;;4.22;1.10;;;21.30;96.70;;;;;;5086133;28;20054;-75
2022/10/01 11:32:48;;;;;;;4.22;0.80;;;21.50;96.70;;;;;;5085226;28;20040;-75
2022/10/01 11:35:27;;;;;;;5.22;0.95;;;21.70;96.70;;;;;;5086382;28;20110;-75
2022/10/01 11:38:21;;;;;;;4.38;0.75;;;21.90;96.70;;;;;;5084184;28;20036;-75
2022/10/01 11:40:53;;;;;;;5.82;0.90;;;22.10;96.70;;;;;;5062828;28;20074;-74
2022/10/01 11:43:26;;;;;;;4.75;0.75;;;22.20;96.70;;;;;;5085794;28;20115;-74
2022/10/01 11:46:00;;;;;;;5.03;0.82;;;22.30;96.70;;;;;;5086378;28;20048;-73
2022/10/01 11:48:32;;;;;;;5.63;1.10;;;22.40;96.70;;;;;;5083798;28;20063;-76
2022/10/01 11:51:04;;;;;;;3.97;0.82;;;22.50;96.70;;;;;;5079818;28;20049;-75
2022/10/01 11:53:38;;;;;;;4.75;0.75;;;22.60;96.70;;;;;;5083614;28;20048;-78
2022/10/01 11:59:06;;;;;;;4.18;0.70;;;22.80;96.70;;;;;;5084350;28;20105;-75
2022/10/01 12:01:41;;;;;;;4.53;0.80;;;23.00;96.70;;;;;;5033356;28;20048;-74
2022/10/01 12:04:27;;;;;;;3.67;0.93;;;22.90;96.70;;;;;;5081451;28;20079;-74
2022/10/01 12:07:03;;;;;;;3.72;0.93;;;22.90;96.70;;;;;;5076391;28;20068;-73
2022/10/01 12:09:43;;;;;;;3.53;0.82;;;23.00;96.70;;;;;;5079942;28;20135;-74
2022/10/01 12:12:16;;;;;;;3.40;0.60;;;22.90;96.70;;;;;;5084271;28;20042;-73
2022/10/01 12:14:49;;;;;;;4.45;0.47;;;23.00;96.70;;;;;;5078625;28;20075;-73
2022/10/01 12:17:25;;;;;;;4.97;0.52;;;23.20;96.70;;;;;;5084242;28;20044;-74
2022/10/01 12:19:56;;;;;;;3.78;0.80;;;23.20;96.70;;;;;;5085129;28;20044;-74
2022/10/01 12:22:27;;;;;;;4.82;0.73;;;23.30;96.70;;;;;;5081602;28;20131;-73
2022/10/01 12:24:55;;;;;;;4.45;0.60;;;23.30;96.70;;;;;;5098192;28;20565;-73
2022/10/01 12:27:43;;;;;;;5.85;0.63;;;23.20;96.70;;;;;;5083324;28;20048;-73
2022/10/01 12:30:15;;;;;;;4.10;0.50;;;22.90;96.70;;;;;;5076218;28;20040;-73
2022/10/01 12:33:03;;;;;;;4.13;0.70;;;23.20;96.70;;;;;;5083241;28;20123;-73
2022/10/01 12:35:46;;;;;;;2.72;0.47;;;23.30;96.70;;;;;;5082716;28;20036;-71
2022/10/01 12:38:34;;;;;;;4.85;0.70;;;23.40;96.70;;;;;;5064302;28;20059;-73
2022/10/01 12:41:13;;;;;;;2.55;0.65;;;23.30;96.70;;;;;;5083023;28;20097;-74
2022/10/01 12:44:12;;;;;;;5.70;0.60;;;23.10;96.70;;;;;;5079600;28;20043;-74
2022/10/01 12:46:48;;;;;;;5.45;0.88;;;23.20;96.70;;;;;;5079089;28;20105;-73
2022/10/01 12:49:27;;;;;;;4.50;0.80;;;23.00;96.70;;;;;;5081815;28;20052;-74
2022/10/01 12:52:02;;;;;;;5.22;0.88;;;22.90;96.70;;;;;;5084333;28;20826;-73
2022/10/01 12:54:54;;;;;;;2.23;0.50;;;22.90;96.70;;;;;;5082570;28;20044;-73
2022/10/01 12:57:41;;;;;;;3.50;0.40;;;23.00;96.70;;;;;;5083414;28;20360;-73
2022/10/01 13:00:17;;;;;;;5.47;0.80;;;22.90;96.70;;;;;;5082656;28;20109;-73
2022/10/01 13:03:13;;;;;;;2.90;0.35;;;22.80;96.70;;;;;;5084653;28;20040;-74
2022/10/01 13:05:57;;;;;;;1.65;0.32;;;22.80;96.70;;;;;;5037842;28;20504;-73
2022/10/01 13:08:48;;;;;;;2.20;0.30;;;22.80;96.70;;;;;;5115469;27;20081;-73
2022/10/01 13:11:36;;;;;;;2.17;0.40;;;22.70;96.70;;;;;;5082911;28;20951;-73
2022/10/01 13:14:07;;;;;;;3.13;0.35;;;22.70;96.70;;;;;;5081299;28;20516;-73
2022/10/01 13:16:43;;;;;;;3.20;0.40;;;22.80;96.70;;;;;;5084806;28;20044;-73
2022/10/01 13:19:20;;;;;;;1.92;0.47;;;22.80;96.70;;;;;;5083924;28;20047;-73